createdAt,value
2019-03-30T00:02:04.590Z,12.53
2019-03-30T00:04:34.985Z,12.70
2019-03-30T00:07:05.498Z,11.70
2019-03-30T00:09:37.890Z,12.03
2019-03-30T00:12:07.473Z,11.77
2019-03-30T00:14:36.861Z,12.37
2019-03-30T00:17:07.430Z,12.27
2019-03-30T00:19:36.836Z,11.97
2019-03-30T00:22:07.251Z,11.93
2019-03-30T00:24:36.678Z,12.43
2019-03-30T00:27:06.170Z,12.37
2019-03-30T00:29:35.040Z,12.23
2019-03-30T00:32:03.562Z,12.23
2019-03-30T00:34:32.330Z,12.20
2019-03-30T00:37:01.757Z,12.90
2019-03-30T00:39:32.049Z,11.37
2019-03-30T00:42:02.415Z,12.03
2019-03-30T00:44:31.808Z,12.20
2019-03-30T00:47:03.343Z,12.27
2019-03-30T00:49:32.801Z,11.83
2019-03-30T00:52:02.189Z,12.40
2019-03-30T00:54:32.464Z,11.80
2019-03-30T00:57:02.832Z,13.00
2019-03-30T00:59:33.197Z,12.30
2019-03-30T01:02:03.758Z,12.23
2019-03-30T01:04:34.280Z,12.60
2019-03-30T01:07:03.737Z,11.40
2019-03-30T01:09:36.127Z,11.73
2019-03-30T01:12:06.547Z,11.73
2019-03-30T01:14:36.946Z,11.57
2019-03-30T01:17:07.030Z,10.50
2019-03-30T01:19:46.116Z,11.33
2019-03-30T01:22:15.583Z,11.50
2019-03-30T01:24:46.083Z,11.60
2019-03-30T01:27:15.676Z,11.40
2019-03-30T01:29:45.059Z,11.73
2019-03-30T01:32:14.478Z,11.13
2019-03-30T01:34:43.882Z,11.50
2019-03-30T01:37:14.458Z,12.13
2019-03-30T01:39:43.858Z,12.03
2019-03-30T01:42:14.444Z,11.90
2019-03-30T01:44:46.415Z,12.27
2019-03-30T01:47:16.879Z,12.03
2019-03-30T01:49:49.300Z,12.83
2019-03-30T01:52:18.706Z,12.70
2019-03-30T01:54:49.066Z,12.60
2019-03-30T01:57:18.437Z,12.93
2019-03-30T01:59:47.837Z,12.53
2019-03-30T02:02:18.403Z,13.37
2019-03-30T02:04:47.809Z,13.50
2019-03-30T02:07:19.529Z,12.70
2019-03-30T02:09:49.034Z,13.30
2019-03-30T02:12:19.412Z,13.63
2019-03-30T02:14:48.804Z,12.97
2019-03-30T02:17:20.160Z,13.40
2019-03-30T02:19:50.515Z,12.93
2019-03-30T02:22:19.918Z,12.60
2019-03-30T02:24:49.238Z,13.00
2019-03-30T02:27:18.650Z,12.53
2019-03-30T02:29:47.121Z,12.77
2019-03-30T02:32:16.481Z,12.73
2019-03-30T02:34:46.887Z,11.93
2019-03-30T02:37:17.333Z,12.00
2019-03-30T02:39:46.819Z,12.77
2019-03-30T02:42:17.497Z,11.77
2019-03-30T02:44:48.206Z,12.67
2019-03-30T02:47:17.595Z,13.17
2019-03-30T02:49:48.070Z,13.03
2019-03-30T02:52:17.482Z,13.13
2019-03-30T02:54:47.962Z,12.20
2019-03-30T02:57:17.425Z,11.93
2019-03-30T02:59:46.825Z,12.43
2019-03-30T03:02:17.155Z,12.67
2019-03-30T03:04:46.588Z,13.63
2019-03-30T03:07:16.947Z,12.63
2019-03-30T03:09:47.341Z,12.17
2019-03-30T03:12:17.748Z,12.43
2019-03-30T03:14:48.046Z,12.37
2019-03-30T03:17:19.123Z,12.57
2019-03-30T03:19:49.455Z,12.67
2019-03-30T03:22:19.797Z,13.00
2019-03-30T03:24:49.273Z,12.37
2019-03-30T03:27:18.660Z,12.90
2019-03-30T03:29:49.124Z,12.63
2019-03-30T03:32:17.604Z,12.67
2019-03-30T03:34:47.951Z,12.47
2019-03-30T03:37:17.433Z,12.30
2019-03-30T03:39:47.843Z,12.87
2019-03-30T03:42:16.636Z,12.53
2019-03-30T03:44:47.066Z,12.53
2019-03-30T03:47:16.429Z,12.60
2019-03-30T03:49:46.870Z,12.70
2019-03-30T03:52:17.354Z,12.80
2019-03-30T03:54:49.039Z,13.07
2019-03-30T03:57:21.288Z,12.53
2019-03-30T03:59:52.803Z,11.97
2019-03-30T04:02:25.248Z,12.67
2019-03-30T04:04:57.736Z,12.87
2019-03-30T04:07:31.700Z,12.37
2019-03-30T04:12:52.614Z,11.80
2019-03-30T04:15:29.128Z,13.60
2019-03-30T04:17:57.954Z,12.47
2019-03-30T04:20:27.617Z,12.20
2019-03-30T04:22:57.929Z,12.10
2019-03-30T04:25:28.800Z,12.63
2019-03-30T04:27:58.338Z,13.37
2019-03-30T04:30:28.686Z,13.13
2019-03-30T04:32:59.138Z,13.50
2019-03-30T04:35:28.544Z,12.57
2019-03-30T04:37:59.006Z,13.10
2019-03-30T04:40:28.402Z,12.80
2019-03-30T04:42:58.895Z,12.20
2019-03-30T04:45:29.292Z,12.33
2019-03-30T04:48:01.673Z,12.67
2019-03-30T04:50:31.388Z,12.20
2019-03-30T04:53:00.855Z,12.73
2019-03-30T04:55:32.717Z,12.60
2019-03-30T04:58:04.561Z,13.03
2019-03-30T05:00:35.163Z,12.40
2019-03-30T05:03:05.726Z,13.03
2019-03-30T05:05:35.136Z,12.13
2019-03-30T05:08:06.911Z,13.03
2019-03-30T05:10:36.284Z,12.47
2019-03-30T05:13:06.880Z,12.70
2019-03-30T05:15:36.361Z,12.90
2019-03-30T05:18:08.235Z,12.53
2019-03-30T05:20:39.763Z,11.80
2019-03-30T05:23:12.259Z,12.73
2019-03-30T05:25:41.668Z,11.00
2019-03-30T05:28:12.129Z,11.47
2019-03-30T05:30:41.536Z,10.63
2019-03-30T05:33:12.106Z,10.63
2019-03-30T05:35:42.518Z,10.30
2019-03-30T05:38:12.927Z,10.33
2019-03-30T05:40:42.289Z,9.70
2019-03-30T05:43:11.680Z,9.87
2019-03-30T05:45:41.009Z,9.40
2019-03-30T05:48:10.480Z,9.77
2019-03-30T05:50:40.870Z,9.63
2019-03-30T05:53:10.349Z,9.97
2019-03-30T05:55:40.063Z,10.03
2019-03-30T05:58:12.351Z,8.67
2019-03-30T06:00:42.910Z,10.07
2019-03-30T06:03:15.159Z,11.77
2019-03-30T06:05:43.629Z,9.83
2019-03-30T06:08:12.996Z,9.70
2019-03-30T06:10:42.383Z,9.43
2019-03-30T06:13:10.908Z,9.30
2019-03-30T06:15:41.457Z,9.47
2019-03-30T06:18:12.003Z,9.00
2019-03-30T06:20:41.355Z,8.50
2019-03-30T06:23:10.756Z,8.00
2019-03-30T06:25:39.239Z,8.13
2019-03-30T06:28:09.587Z,9.37
2019-03-30T06:30:39.229Z,9.30
2019-03-30T06:33:09.722Z,10.33
2019-03-30T06:35:40.027Z,10.53
2019-03-30T06:38:11.885Z,11.87
2019-03-30T06:40:41.416Z,10.03
2019-03-30T06:43:11.873Z,10.63
2019-03-30T06:45:43.726Z,10.13
2019-03-30T06:48:14.268Z,10.47
2019-03-30T06:50:44.859Z,9.77
2019-03-30T06:53:16.945Z,9.97
2019-03-30T06:55:47.343Z,9.63
2019-03-30T06:58:18.800Z,9.23
2019-03-30T07:00:48.346Z,10.43
2019-03-30T07:03:20.855Z,10.47
2019-03-30T07:05:51.241Z,9.87
2019-03-30T07:08:20.669Z,9.87
2019-03-30T07:10:50.249Z,9.93
2019-03-30T07:13:21.746Z,9.90
2019-03-30T07:15:52.528Z,10.00
2019-03-30T07:18:22.983Z,10.73
2019-03-30T07:20:52.488Z,10.20
2019-03-30T07:23:24.407Z,9.57
2019-03-30T07:25:54.732Z,9.80
2019-03-30T07:28:25.098Z,9.53
2019-03-30T07:30:54.538Z,9.27
2019-03-30T07:33:23.405Z,9.40
2019-03-30T07:35:53.834Z,9.70
2019-03-30T07:38:24.251Z,9.73
2019-03-30T07:40:55.825Z,10.08
2019-03-30T07:43:25.209Z,10.13
2019-03-30T07:45:54.669Z,10.33
2019-03-30T07:48:23.986Z,10.30
2019-03-30T07:50:54.417Z,9.90
2019-03-30T07:53:26.630Z,10.10
2019-03-30T07:56:08.332Z,10.13
2019-03-30T07:58:30.671Z,10.90
2019-03-30T08:01:01.130Z,11.03
2019-03-30T08:03:33.169Z,10.90
2019-03-30T08:06:04.591Z,10.82
2019-03-30T08:08:35.073Z,11.33
2019-03-30T08:11:06.367Z,12.77
2019-03-30T08:13:36.807Z,11.33
2019-03-30T08:16:06.215Z,12.00
2019-03-30T08:18:36.680Z,13.47
2019-03-30T08:21:07.093Z,13.50
2019-03-30T08:23:40.608Z,13.43
2019-03-30T08:26:07.705Z,12.63
2019-03-30T08:28:38.111Z,11.70
2019-03-30T08:31:07.509Z,11.97
2019-03-30T08:33:37.932Z,12.27
2019-03-30T08:36:08.313Z,14.37
2019-03-30T08:38:38.669Z,13.90
2019-03-30T08:41:09.615Z,13.97
2019-03-30T08:43:39.062Z,14.33
2019-03-30T08:46:10.696Z,15.10
2019-03-30T08:48:40.137Z,16.07
2019-03-30T08:51:10.447Z,18.07
2019-03-30T08:53:54.078Z,19.63
2019-03-30T08:56:13.932Z,20.93
2019-03-30T08:58:44.333Z,18.80
2019-03-30T09:01:14.720Z,19.23
2019-03-30T09:03:45.165Z,17.33
2019-03-30T09:06:14.553Z,16.37
2019-03-30T09:08:45.007Z,14.43
2019-03-30T09:11:16.401Z,14.77
2019-03-30T09:13:46.854Z,14.43
2019-03-30T09:16:16.266Z,14.57
2019-03-30T09:18:49.485Z,14.53
2019-03-30T09:21:19.026Z,14.73
2019-03-30T09:23:49.520Z,14.17
2019-03-30T09:26:19.954Z,15.20
2019-03-30T09:28:50.312Z,15.17
2019-03-30T09:31:19.706Z,14.03
2019-03-30T09:33:49.155Z,15.00
2019-03-30T09:36:18.563Z,15.70
2019-03-30T09:38:49.039Z,14.30
2019-03-30T09:41:21.158Z,15.27
2019-03-30T09:43:51.620Z,15.47
2019-03-30T09:46:21.018Z,15.50
2019-03-30T09:48:51.391Z,15.40
2019-03-30T09:51:21.720Z,14.97
2019-03-30T09:53:52.092Z,14.17
2019-03-30T09:56:23.168Z,15.67
2019-03-30T09:58:54.160Z,16.53
2019-03-30T10:01:26.163Z,15.07
2019-03-30T10:04:01.648Z,16.57
2019-03-30T10:06:34.534Z,15.50
2019-03-30T10:09:03.026Z,16.43
2019-03-30T10:11:33.424Z,16.00
2019-03-30T10:14:02.757Z,16.23
2019-03-30T10:16:32.160Z,16.17
2019-03-30T10:19:02.621Z,16.37
2019-03-30T10:21:32.977Z,15.83
2019-03-30T10:24:04.435Z,16.37
2019-03-30T10:26:33.843Z,16.10
2019-03-30T10:29:07.897Z,16.60
2019-03-30T10:31:38.304Z,15.93
2019-03-30T10:34:08.715Z,16.13
2019-03-30T10:36:40.792Z,15.90
2019-03-30T10:39:11.251Z,16.10
2019-03-30T10:41:42.734Z,16.47
2019-03-30T10:44:14.870Z,16.53
2019-03-30T10:46:45.449Z,16.63
2019-03-30T10:49:14.274Z,16.67
2019-03-30T10:51:43.752Z,16.80
2019-03-30T10:54:14.147Z,17.37
2019-03-30T10:56:44.446Z,16.40
2019-03-30T10:59:13.861Z,16.83
2019-03-30T11:01:43.315Z,16.93
2019-03-30T11:04:12.853Z,16.87
2019-03-30T11:06:43.569Z,16.57
2019-03-30T11:09:14.325Z,17.73
2019-03-30T11:11:46.678Z,17.13
2019-03-30T11:14:17.044Z,16.10
2019-03-30T11:16:47.414Z,16.40
2019-03-30T11:19:21.543Z,16.43
2019-03-30T11:21:53.935Z,16.47
2019-03-30T11:24:28.079Z,15.73
2019-03-30T11:27:00.592Z,16.30
2019-03-30T11:29:30.998Z,17.30
2019-03-30T11:32:01.539Z,17.07
2019-03-30T11:34:32.275Z,17.17
2019-03-30T11:37:04.722Z,19.90
2019-03-30T11:39:34.138Z,16.17
2019-03-30T11:42:04.697Z,19.80
2019-03-30T11:44:34.103Z,17.43
2019-03-30T11:47:03.525Z,16.93
2019-03-30T11:49:33.908Z,16.07
2019-03-30T11:52:06.425Z,16.20
2019-03-30T11:54:36.946Z,17.00
2019-03-30T11:57:08.466Z,15.93
2019-03-30T11:59:38.939Z,18.30
2019-03-30T12:02:10.833Z,17.67
2019-03-30T12:04:40.267Z,17.13
2019-03-30T12:07:10.841Z,17.07
2019-03-30T12:09:40.258Z,17.30
2019-03-30T12:12:10.726Z,17.73
2019-03-30T12:14:41.616Z,16.37
2019-03-30T12:17:10.375Z,17.63
2019-03-30T12:19:40.792Z,17.43
2019-03-30T12:22:14.749Z,16.93
2019-03-30T12:24:46.036Z,16.80
2019-03-30T12:27:16.590Z,17.80
2019-03-30T12:29:46.496Z,17.57
2019-03-30T12:32:15.004Z,17.73
2019-03-30T12:34:44.378Z,17.90
2019-03-30T12:37:12.863Z,17.07
2019-03-30T12:39:43.293Z,16.37
2019-03-30T12:42:13.804Z,18.33
2019-03-30T12:44:45.496Z,16.67
2019-03-30T12:47:15.881Z,17.67
2019-03-30T12:49:45.532Z,16.63
2019-03-30T12:52:15.918Z,19.10
2019-03-30T12:54:47.409Z,16.43
2019-03-30T12:57:17.775Z,18.17
2019-03-30T12:59:48.176Z,16.60
2019-03-30T13:02:20.599Z,22.63
2019-03-30T13:04:50.018Z,17.37
2019-03-30T13:07:20.383Z,17.40
2019-03-30T13:09:49.874Z,17.33
2019-03-30T13:12:21.967Z,17.50
2019-03-30T13:14:52.531Z,17.00
2019-03-30T13:17:22.927Z,17.07
2019-03-30T13:19:56.021Z,17.80
2019-03-30T13:22:26.354Z,17.10
2019-03-30T13:24:55.757Z,18.23
2019-03-30T13:27:25.741Z,17.80
2019-03-30T13:29:56.211Z,18.60
2019-03-30T13:32:24.947Z,17.57
2019-03-30T13:34:57.750Z,18.07
2019-03-30T13:37:29.783Z,16.83
2019-03-30T13:40:01.600Z,17.17
2019-03-30T13:42:30.992Z,20.10
2019-03-30T13:45:03.268Z,17.90
2019-03-30T13:47:32.498Z,17.80
2019-03-30T13:50:02.960Z,17.07
2019-03-30T13:52:33.438Z,17.80
2019-03-30T13:55:06.429Z,19.77
2019-03-30T13:57:37.843Z,16.60
2019-03-30T14:00:09.849Z,17.30
2019-03-30T14:02:43.763Z,17.27
2019-03-30T14:05:14.131Z,17.37
2019-03-30T14:07:44.623Z,17.13
2019-03-30T14:10:15.696Z,17.60
2019-03-30T14:12:45.058Z,17.00
2019-03-30T14:15:17.040Z,17.07
2019-03-30T14:17:48.746Z,17.97
2019-03-30T14:20:18.267Z,17.63
2019-03-30T14:22:48.723Z,17.10
2019-03-30T14:25:18.124Z,17.23
2019-03-30T14:27:46.600Z,17.00
2019-03-30T14:30:16.653Z,17.67
2019-03-30T14:32:45.896Z,17.03
2019-03-30T14:35:16.184Z,20.93
2019-03-30T14:37:48.276Z,19.90
2019-03-30T14:40:18.742Z,17.57
2019-03-30T14:42:49.146Z,17.23
2019-03-30T14:45:18.656Z,16.97
2019-03-30T14:47:48.657Z,17.50
2019-03-30T14:50:19.540Z,18.03
2019-03-30T14:52:49.935Z,17.13
2019-03-30T14:55:19.414Z,16.60
2019-03-30T14:57:48.804Z,18.60
2019-03-30T15:00:17.400Z,17.07
2019-03-30T15:02:48.468Z,16.00
2019-03-30T15:05:17.261Z,17.43
2019-03-30T15:07:48.415Z,17.53
2019-03-30T15:10:18.907Z,18.10
2019-03-30T15:12:50.865Z,18.30
2019-03-30T15:15:21.311Z,17.57
2019-03-30T15:17:51.634Z,17.20
2019-03-30T15:20:20.999Z,16.60
2019-03-30T15:22:51.040Z,17.37
2019-03-30T15:25:20.514Z,16.97
2019-03-30T15:27:53.966Z,15.93
2019-03-30T15:30:25.225Z,16.17
2019-03-30T15:32:56.195Z,15.77
2019-03-30T15:35:26.617Z,19.63
2019-03-30T15:37:57.440Z,22.03
2019-03-30T15:40:27.846Z,16.33
2019-03-30T15:42:57.431Z,16.63
2019-03-30T15:45:26.821Z,17.93
2019-03-30T15:47:57.862Z,17.27
2019-03-30T15:50:28.217Z,17.23
2019-03-30T15:52:58.578Z,16.47
2019-03-30T15:55:29.152Z,16.50
2019-03-30T15:57:59.536Z,17.90
2019-03-30T16:00:28.943Z,17.17
2019-03-30T16:02:59.439Z,17.07
2019-03-30T16:05:34.200Z,17.40
2019-03-30T16:08:05.867Z,18.70
2019-03-30T16:10:35.353Z,16.47
2019-03-30T16:13:08.430Z,16.87
2019-03-30T16:15:39.340Z,17.07
2019-03-30T16:18:10.443Z,16.90
2019-03-30T16:20:41.937Z,17.00
2019-03-30T16:23:12.576Z,17.43
2019-03-30T16:25:45.594Z,18.53
2019-03-30T16:28:17.618Z,17.87
2019-03-30T16:30:47.152Z,18.10
2019-03-30T16:33:16.557Z,18.13
2019-03-30T16:35:48.257Z,17.93
2019-03-30T16:38:18.641Z,18.80
2019-03-30T16:40:47.871Z,18.17
2019-03-30T16:43:19.571Z,17.60
2019-03-30T16:45:51.245Z,19.33
2019-03-30T16:48:21.808Z,18.37
2019-03-30T16:50:51.233Z,18.40
2019-03-30T16:53:20.627Z,17.07
2019-03-30T16:55:50.991Z,18.80
2019-03-30T16:58:21.459Z,18.77
2019-03-30T17:00:56.599Z,19.17
2019-03-30T17:03:27.735Z,18.23
2019-03-30T17:06:00.228Z,19.00
2019-03-30T17:08:30.911Z,18.00
2019-03-30T17:11:01.237Z,18.40
2019-03-30T17:13:31.765Z,18.70
2019-03-30T17:16:04.908Z,19.50
2019-03-30T17:18:34.481Z,19.37
2019-03-30T17:21:03.984Z,18.30
2019-03-30T17:23:34.650Z,19.07
2019-03-30T17:26:05.251Z,18.57
2019-03-30T17:28:37.040Z,18.87
2019-03-30T17:31:07.534Z,18.80
2019-03-30T17:33:36.933Z,18.57
2019-03-30T17:36:05.824Z,19.73
2019-03-30T17:38:36.430Z,19.17
2019-03-30T17:41:07.053Z,18.93
2019-03-30T17:43:37.366Z,17.63
2019-03-30T17:46:09.107Z,19.03
2019-03-30T17:48:39.522Z,19.40
2019-03-30T17:51:13.596Z,19.13
2019-03-30T17:53:42.950Z,17.87
2019-03-30T17:56:12.476Z,19.10
2019-03-30T17:58:49.605Z,18.40
2019-03-30T18:01:21.997Z,18.83
2019-03-30T18:03:52.507Z,18.87
2019-03-30T18:06:22.863Z,19.13
2019-03-30T18:08:54.907Z,18.87
2019-03-30T18:11:25.303Z,19.43
2019-03-30T18:13:55.668Z,18.60
2019-03-30T18:16:26.668Z,28.77
2019-03-30T18:18:57.134Z,20.67
2019-03-30T18:21:28.186Z,25.07
2019-03-30T18:23:58.546Z,20.30
2019-03-30T18:26:29.189Z,23.30
2019-03-30T18:29:01.472Z,23.90
2019-03-30T18:31:31.979Z,22.13
2019-03-30T18:34:01.381Z,24.20
2019-03-30T18:36:33.069Z,29.03
2019-03-30T18:39:09.675Z,30.83
2019-03-30T18:41:35.446Z,24.60
2019-03-30T18:44:05.971Z,26.37
2019-03-30T18:46:36.402Z,27.77
2019-03-30T18:49:10.145Z,27.23
2019-03-30T18:51:41.863Z,25.87
2019-03-30T18:54:11.438Z,28.57
2019-03-30T18:56:39.965Z,27.27
2019-03-30T18:59:09.304Z,27.67
2019-03-30T19:01:43.955Z,23.17
2019-03-30T19:04:14.813Z,32.57
2019-03-30T19:06:44.253Z,26.80
2019-03-30T19:09:14.644Z,26.43
2019-03-30T19:11:44.009Z,29.00
2019-03-30T19:14:13.367Z,46.17
2019-03-30T19:16:42.784Z,25.70
2019-03-30T19:19:13.049Z,27.30
2019-03-30T19:21:42.553Z,29.47
2019-03-30T19:24:12.900Z,24.87
2019-03-30T19:26:42.415Z,27.63
2019-03-30T19:29:13.156Z,29.00
2019-03-30T19:31:43.600Z,27.30
2019-03-30T19:34:16.088Z,25.97
2019-03-30T19:36:45.498Z,34.40
2019-03-30T19:39:15.959Z,30.27
2019-03-30T19:41:46.374Z,28.60
2019-03-30T19:44:16.752Z,27.27
2019-03-30T19:46:47.746Z,27.60
2019-03-30T19:49:18.218Z,24.27
2019-03-30T19:51:48.841Z,29.63
2019-03-30T19:54:17.662Z,22.97
2019-03-30T19:56:48.081Z,24.53
2019-03-30T19:59:18.451Z,22.83
2019-03-30T20:01:48.877Z,22.20
2019-03-30T20:04:18.394Z,23.00
2019-03-30T20:06:50.733Z,22.93
2019-03-30T20:09:21.148Z,20.90
2019-03-30T20:11:50.500Z,20.27
2019-03-30T20:14:20.817Z,19.77
2019-03-30T20:16:51.182Z,20.27
2019-03-30T20:19:22.704Z,21.23
2019-03-30T20:21:53.075Z,21.67
2019-03-30T20:24:23.931Z,18.27
2019-03-30T20:26:54.592Z,18.40
2019-03-30T20:29:25.924Z,18.27
2019-03-30T20:31:57.826Z,18.57
2019-03-30T20:34:27.390Z,18.57
2019-03-30T20:36:58.998Z,18.40
2019-03-30T20:39:27.780Z,18.23
2019-03-30T20:41:56.620Z,19.43
2019-03-30T20:44:29.010Z,18.17
2019-03-30T20:46:59.374Z,17.37
2019-03-30T20:49:29.650Z,17.37
2019-03-30T20:52:00.112Z,18.67
2019-03-30T20:54:30.530Z,18.57
2019-03-30T20:57:00.096Z,22.17
2019-03-30T20:59:39.986Z,21.13
2019-03-30T21:02:00.752Z,19.17
2019-03-30T21:04:30.219Z,20.67
2019-03-30T21:07:00.583Z,20.70
2019-03-30T21:09:30.977Z,23.47
2019-03-30T21:12:02.526Z,23.13
2019-03-30T21:14:31.001Z,21.10
2019-03-30T21:17:02.351Z,23.83
2019-03-30T21:19:32.914Z,22.33
2019-03-30T21:22:02.528Z,22.13
2019-03-30T21:24:32.894Z,22.63
2019-03-30T21:27:05.590Z,23.00
2019-03-30T21:29:36.110Z,22.37
2019-03-30T21:32:06.620Z,22.30
2019-03-30T21:34:35.983Z,21.87
2019-03-30T21:37:05.374Z,21.67
2019-03-30T21:39:35.701Z,21.73
2019-03-30T21:42:09.176Z,22.90
2019-03-30T21:44:40.560Z,22.03
2019-03-30T21:47:10.101Z,21.57
2019-03-30T21:49:41.026Z,22.33
2019-03-30T21:52:12.665Z,22.90
2019-03-30T21:54:42.160Z,23.20
2019-03-30T21:57:11.168Z,21.83
2019-03-30T21:59:41.592Z,21.40
2019-03-30T22:02:10.969Z,19.63
2019-03-30T22:04:41.367Z,20.77
2019-03-30T22:07:11.760Z,19.93
2019-03-30T22:09:44.158Z,20.17
2019-03-30T22:12:14.875Z,21.97
2019-03-30T22:14:44.280Z,21.40
2019-03-30T22:17:16.233Z,19.73
2019-03-30T22:19:46.614Z,20.13
2019-03-30T22:22:16.095Z,20.67
2019-03-30T22:24:48.470Z,20.87
2019-03-30T22:27:18.853Z,20.90
2019-03-30T22:29:49.651Z,21.00
2019-03-30T22:32:20.103Z,20.53
2019-03-30T22:34:49.527Z,21.23
2019-03-30T22:39:53.255Z,21.13
2019-03-30T22:42:23.729Z,21.60
2019-03-30T22:44:52.971Z,20.13
2019-03-30T22:47:25.355Z,20.93
2019-03-30T22:49:54.716Z,21.37
2019-03-30T22:52:25.125Z,21.50
2019-03-30T22:54:55.529Z,20.20
2019-03-30T22:57:25.930Z,20.07
2019-03-30T22:59:57.744Z,20.30
2019-03-30T23:02:27.287Z,18.57
2019-03-30T23:04:57.672Z,18.90
2019-03-30T23:07:27.055Z,18.87
2019-03-30T23:09:57.420Z,19.83
2019-03-30T23:12:27.858Z,19.10
2019-03-30T23:14:57.329Z,19.00
2019-03-30T23:17:28.646Z,19.40
2019-03-30T23:19:58.069Z,18.67
2019-03-30T23:22:30.406Z,18.50
2019-03-30T23:25:00.719Z,17.70
2019-03-30T23:27:30.113Z,18.17
2019-03-30T23:30:00.536Z,17.63
2019-03-30T23:32:29.845Z,17.87
2019-03-30T23:34:59.352Z,17.30
2019-03-30T23:37:29.709Z,16.97
2019-03-30T23:40:00.117Z,17.77
2019-03-30T23:42:32.022Z,18.50
2019-03-30T23:45:02.394Z,17.70
2019-03-30T23:47:32.808Z,18.53
2019-03-30T23:50:02.196Z,21.20
2019-03-30T23:52:32.558Z,18.80
2019-03-30T23:55:02.031Z,18.97
2019-03-30T23:57:31.424Z,17.57
